sensor_id;sensor_type;location;lat;lon;timestamp;temperature;humidity
4097;DHT22;2062;50.694;7.246;2023-04-01T00:01:50;11.10;53.90
4097;DHT22;2062;50.694;7.246;2023-04-01T00:04:17;11.10;53.80
4097;DHT22;2062;50.694;7.246;2023-04-01T00:06:44;11.00;53.80
4097;DHT22;2062;50.694;7.246;2023-04-01T00:09:14;11.10;53.90
4097;DHT22;2062;50.694;7.246;2023-04-01T00:11:41;11.00;53.90
4097;DHT22;2062;50.694;7.246;2023-04-01T00:14:08;11.00;53.90
4097;DHT22;2062;50.694;7.246;2023-04-01T00:16:36;11.00;54.70
4097;DHT22;2062;50.694;7.246;2023-04-01T00:19:02;11.00;54.00
4097;DHT22;2062;50.694;7.246;2023-04-01T00:21:30;11.00;54.10
4097;DHT22;2062;50.694;7.246;2023-04-01T00:23:57;11.00;54.10
4097;DHT22;2062;50.694;7.246;2023-04-01T00:26:26;11.00;54.30
4097;DHT22;2062;50.694;7.246;2023-04-01T00:28:52;11.00;54.30
4097;DHT22;2062;50.694;7.246;2023-04-01T00:31:19;10.90;54.30
4097;DHT22;2062;50.694;7.246;2023-04-01T00:33:46;11.00;54.30
4097;DHT22;2062;50.694;7.246;2023-04-01T00:36:15;10.90;54.20
4097;DHT22;2062;50.694;7.246;2023-04-01T00:38:42;10.90;54.40
4097;DHT22;2062;50.694;7.246;2023-04-01T00:41:11;10.90;54.40
4097;DHT22;2062;50.694;7.246;2023-04-01T00:43:42;10.90;54.40
4097;DHT22;2062;50.694;7.246;2023-04-01T00:46:08;10.80;54.40
4097;DHT22;2062;50.694;7.246;2023-04-01T00:48:38;10.90;54.50
4097;DHT22;2062;50.694;7.246;2023-04-01T00:51:08;10.90;54.60
4097;DHT22;2062;50.694;7.246;2023-04-01T00:53:38;10.80;54.40
4097;DHT22;2062;50.694;7.246;2023-04-01T00:56:09;10.80;54.50
4097;DHT22;2062;50.694;7.246;2023-04-01T00:58:39;10.90;54.60
4097;DHT22;2062;50.694;7.246;2023-04-01T01:01:09;10.80;54.50
4097;DHT22;2062;50.694;7.246;2023-04-01T01:03:36;10.80;54.50
4097;DHT22;2062;50.694;7.246;2023-04-01T01:06:14;10.80;54.70
4097;DHT22;2062;50.694;7.246;2023-04-01T01:09:06;10.80;54.50
4097;DHT22;2062;50.694;7.246;2023-04-01T01:11:39;10.80;55.00
4097;DHT22;2062;50.694;7.246;2023-04-01T01:14:13;10.80;54.90
4097;DHT22;2062;50.694;7.246;2023-04-01T01:16:51;10.70;55.00
4097;DHT22;2062;50.694;7.246;2023-04-01T01:19:35;10.80;54.90
4097;DHT22;2062;50.694;7.246;2023-04-01T01:22:23;10.80;55.20
4097;DHT22;2062;50.694;7.246;2023-04-01T01:25:04;10.70;55.20
4097;DHT22;2062;50.694;7.246;2023-04-01T01:27:39;10.80;55.00
4097;DHT22;2062;50.694;7.246;2023-04-01T01:30:19;10.70;54.90
4097;DHT22;2062;50.694;7.246;2023-04-01T01:33:01;10.70;54.80
4097;DHT22;2062;50.694;7.246;2023-04-01T01:35:36;10.70;55.70
4097;DHT22;2062;50.694;7.246;2023-04-01T01:38:06;10.70;55.00
4097;DHT22;2062;50.694;7.246;2023-04-01T01:40:34;10.80;55.00
4097;DHT22;2062;50.694;7.246;2023-04-01T01:43:05;10.70;54.90
4097;DHT22;2062;50.694;7.246;2023-04-01T01:45:35;10.70;55.00
4097;DHT22;2062;50.694;7.246;2023-04-01T01:48:05;10.70;55.00
4097;DHT22;2062;50.694;7.246;2023-04-01T01:50:35;10.70;55.20
4097;DHT22;2062;50.694;7.246;2023-04-01T01:53:04;10.70;55.10
4097;DHT22;2062;50.694;7.246;2023-04-01T01:55:32;10.70;55.80
4097;DHT22;2062;50.694;7.246;2023-04-01T01:58:02;10.70;55.00
4097;DHT22;2062;50.694;7.246;2023-04-01T02:00:31;10.70;55.10
4097;DHT22;2062;50.694;7.246;2023-04-01T02:02:59;10.70;55.00
4097;DHT22;2062;50.694;7.246;2023-04-01T02:05:28;10.70;55.10
4097;DHT22;2062;50.694;7.246;2023-04-01T02:08:02;10.70;55.10
4097;DHT22;2062;50.694;7.246;2023-04-01T02:10:32;10.70;55.10
4097;DHT22;2062;50.694;7.246;2023-04-01T02:13:05;10.60;54.90
4097;DHT22;2062;50.694;7.246;2023-04-01T02:15:37;10.60;55.10
4097;DHT22;2062;50.694;7.246;2023-04-01T02:18:08;10.70;55.00
4097;DHT22;2062;50.694;7.246;2023-04-01T02:20:36;10.60;55.00
4097;DHT22;2062;50.694;7.246;2023-04-01T02:23:07;10.60;55.00
4097;DHT22;2062;50.694;7.246;2023-04-01T02:25:36;10.60;55.10
4097;DHT22;2062;50.694;7.246;2023-04-01T02:28:05;10.60;55.20
4097;DHT22;2062;50.694;7.246;2023-04-01T02:30:34;10.60;55.10
4097;DHT22;2062;50.694;7.246;2023-04-01T02:33:03;10.60;55.20
4097;DHT22;2062;50.694;7.246;2023-04-01T02:35:30;10.60;55.10
4097;DHT22;2062;50.694;7.246;2023-04-01T02:37:59;10.60;55.30
4097;DHT22;2062;50.694;7.246;2023-04-01T02:40:27;10.60;55.20
4097;DHT22;2062;50.694;7.246;2023-04-01T02:42:54;10.60;55.10
4097;DHT22;2062;50.694;7.246;2023-04-01T02:45:21;10.60;55.40
4097;DHT22;2062;50.694;7.246;2023-04-01T02:47:48;10.60;55.60
4097;DHT22;2062;50.694;7.246;2023-04-01T02:50:15;10.60;55.60
4097;DHT22;2062;50.694;7.246;2023-04-01T02:52:42;10.60;55.90
4097;DHT22;2062;50.694;7.246;2023-04-01T02:55:09;10.60;55.90
4097;DHT22;2062;50.694;7.246;2023-04-01T02:57:37;10.60;56.10
4097;DHT22;2062;50.694;7.246;2023-04-01T03:00:05;10.50;56.00
4097;DHT22;2062;50.694;7.246;2023-04-01T03:02:37;10.50;56.10
4097;DHT22;2062;50.694;7.246;2023-04-01T03:05:05;10.50;56.50
4097;DHT22;2062;50.694;7.246;2023-04-01T03:07:32;10.50;56.70
4097;DHT22;2062;50.694;7.246;2023-04-01T03:09:59;10.50;56.60
4097;DHT22;2062;50.694;7.246;2023-04-01T03:12:26;10.50;56.90
4097;DHT22;2062;50.694;7.246;2023-04-01T03:14:54;10.40;56.80
4097;DHT22;2062;50.694;7.246;2023-04-01T03:17:21;10.40;57.10
4097;DHT22;2062;50.694;7.246;2023-04-01T03:19:48;10.40;57.10
4097;DHT22;2062;50.694;7.246;2023-04-01T03:22:15;10.40;57.00
4097;DHT22;2062;50.694;7.246;2023-04-01T03:24:42;10.30;57.20
4097;DHT22;2062;50.694;7.246;2023-04-01T03:27:09;10.30;57.40
4097;DHT22;2062;50.694;7.246;2023-04-01T03:29:35;10.30;57.40
4097;DHT22;2062;50.694;7.246;2023-04-01T03:32:04;10.30;57.50
4097;DHT22;2062;50.694;7.246;2023-04-01T03:34:50;10.30;57.50
4097;DHT22;2062;50.694;7.246;2023-04-01T03:37:17;10.30;57.60
4097;DHT22;2062;50.694;7.246;2023-04-01T03:39:44;10.30;57.70
4097;DHT22;2062;50.694;7.246;2023-04-01T03:42:12;10.20;57.80
4097;DHT22;2062;50.694;7.246;2023-04-01T03:44:39;10.20;58.00
4097;DHT22;2062;50.694;7.246;2023-04-01T03:47:07;10.20;58.10
4097;DHT22;2062;50.694;7.246;2023-04-01T03:49:34;10.20;58.30
4097;DHT22;2062;50.694;7.246;2023-04-01T03:52:02;10.20;57.80
4097;DHT22;2062;50.694;7.246;2023-04-01T03:54:28;10.10;57.90
4097;DHT22;2062;50.694;7.246;2023-04-01T03:56:55;10.10;57.90
4097;DHT22;2062;50.694;7.246;2023-04-01T03:59:23;10.10;58.00
4097;DHT22;2062;50.694;7.246;2023-04-01T04:01:50;10.10;58.20
4097;DHT22;2062;50.694;7.246;2023-04-01T04:04:18;10.10;58.30
4097;DHT22;2062;50.694;7.246;2023-04-01T04:06:45;10.00;58.30
4097;DHT22;2062;50.694;7.246;2023-04-01T04:09:12;10.00;58.20
4097;DHT22;2062;50.694;7.246;2023-04-01T04:11:39;10.00;58.30
4097;DHT22;2062;50.694;7.246;2023-04-01T04:14:06;10.00;58.20
4097;DHT22;2062;50.694;7.246;2023-04-01T04:16:34;10.00;58.10
4097;DHT22;2062;50.694;7.246;2023-04-01T04:19:02;10.00;58.40
4097;DHT22;2062;50.694;7.246;2023-04-01T04:21:30;10.00;58.50
4097;DHT22;2062;50.694;7.246;2023-04-01T04:23:58;10.00;58.40
4097;DHT22;2062;50.694;7.246;2023-04-01T04:26:25;9.90;58.70
4097;DHT22;2062;50.694;7.246;2023-04-01T04:28:53;9.90;58.50
4097;DHT22;2062;50.694;7.246;2023-04-01T04:31:22;9.90;58.50
4097;DHT22;2062;50.694;7.246;2023-04-01T04:33:49;9.90;58.50
4097;DHT22;2062;50.694;7.246;2023-04-01T04:36:17;9.90;58.40
4097;DHT22;2062;50.694;7.246;2023-04-01T04:38:45;9.90;58.40
4097;DHT22;2062;50.694;7.246;2023-04-01T04:41:13;9.90;58.40
4097;DHT22;2062;50.694;7.246;2023-04-01T04:43:41;9.90;58.60
4097;DHT22;2062;50.694;7.246;2023-04-01T04:46:08;9.90;58.50
4097;DHT22;2062;50.694;7.246;2023-04-01T04:48:35;9.90;58.50
4097;DHT22;2062;50.694;7.246;2023-04-01T04:51:03;9.90;58.50
4097;DHT22;2062;50.694;7.246;2023-04-01T04:53:30;9.80;58.30
4097;DHT22;2062;50.694;7.246;2023-04-01T04:55:58;9.90;58.50
4097;DHT22;2062;50.694;7.246;2023-04-01T04:58:24;9.90;58.60
4097;DHT22;2062;50.694;7.246;2023-04-01T05:00:53;9.90;58.60
4097;DHT22;2062;50.694;7.246;2023-04-01T05:03:19;9.80;58.70
4097;DHT22;2062;50.694;7.246;2023-04-01T05:05:50;9.80;58.40
4097;DHT22;2062;50.694;7.246;2023-04-01T05:08:17;9.90;58.80
4097;DHT22;2062;50.694;7.246;2023-04-01T05:10:45;9.80;58.80
4097;DHT22;2062;50.694;7.246;2023-04-01T05:13:13;9.80;58.80
4097;DHT22;2062;50.694;7.246;2023-04-01T05:15:40;9.80;58.80
4097;DHT22;2062;50.694;7.246;2023-04-01T05:18:07;9.80;58.70
4097;DHT22;2062;50.694;7.246;2023-04-01T05:20:34;9.80;59.70
4097;DHT22;2062;50.694;7.246;2023-04-01T05:23:01;9.80;59.00
4097;DHT22;2062;50.694;7.246;2023-04-01T05:25:28;9.80;58.80
4097;DHT22;2062;50.694;7.246;2023-04-01T05:27:55;9.80;59.00
4097;DHT22;2062;50.694;7.246;2023-04-01T05:30:23;9.80;58.90
4097;DHT22;2062;50.694;7.246;2023-04-01T05:32:49;9.80;59.20
4097;DHT22;2062;50.694;7.246;2023-04-01T05:35:16;9.80;59.30
4097;DHT22;2062;50.694;7.246;2023-04-01T05:37:43;9.80;59.10
4097;DHT22;2062;50.694;7.246;2023-04-01T05:40:11;9.80;59.30
4097;DHT22;2062;50.694;7.246;2023-04-01T05:42:38;9.70;59.50
4097;DHT22;2062;50.694;7.246;2023-04-01T05:45:05;9.70;59.30
4097;DHT22;2062;50.694;7.246;2023-04-01T05:47:34;9.80;59.30
4097;DHT22;2062;50.694;7.246;2023-04-01T05:50:00;9.80;59.30
4097;DHT22;2062;50.694;7.246;2023-04-01T05:52:27;9.80;59.60
4097;DHT22;2062;50.694;7.246;2023-04-01T05:54:54;9.70;60.30
4097;DHT22;2062;50.694;7.246;2023-04-01T05:57:21;9.70;59.70
4097;DHT22;2062;50.694;7.246;2023-04-01T05:59:48;9.80;59.60
4097;DHT22;2062;50.694;7.246;2023-04-01T06:02:17;9.70;59.50
4097;DHT22;2062;50.694;7.246;2023-04-01T06:04:46;9.70;59.50
4097;DHT22;2062;50.694;7.246;2023-04-01T06:07:13;9.70;59.50
4097;DHT22;2062;50.694;7.246;2023-04-01T06:09:41;9.80;59.60
4097;DHT22;2062;50.694;7.246;2023-04-01T06:12:29;9.70;59.60
4097;DHT22;2062;50.694;7.246;2023-04-01T06:15:10;9.70;59.70
4097;DHT22;2062;50.694;7.246;2023-04-01T06:17:49;9.70;59.70
4097;DHT22;2062;50.694;7.246;2023-04-01T06:20:25;9.70;60.50
4097;DHT22;2062;50.694;7.246;2023-04-01T06:26:05;9.80;60.20
4097;DHT22;2062;50.694;7.246;2023-04-01T06:28:55;9.70;59.90
4097;DHT22;2062;50.694;7.246;2023-04-01T06:34:29;9.80;60.00
4097;DHT22;2062;50.694;7.246;2023-04-01T06:37:12;9.80;60.20
4097;DHT22;2062;50.694;7.246;2023-04-01T06:39:56;9.80;60.10
4097;DHT22;2062;50.694;7.246;2023-04-01T06:42:32;9.80;60.20
4097;DHT22;2062;50.694;7.246;2023-04-01T06:45:15;9.80;60.10
4097;DHT22;2062;50.694;7.246;2023-04-01T06:47:55;9.80;60.20
4097;DHT22;2062;50.694;7.246;2023-04-01T06:50:30;9.80;60.00
4097;DHT22;2062;50.694;7.246;2023-04-01T06:53:05;9.80;60.00
4097;DHT22;2062;50.694;7.246;2023-04-01T06:55:38;9.90;60.30
4097;DHT22;2062;50.694;7.246;2023-04-01T06:58:14;9.80;60.10
4097;DHT22;2062;50.694;7.246;2023-04-01T07:00:44;9.80;60.30
4097;DHT22;2062;50.694;7.246;2023-04-01T07:03:18;9.80;60.30
4097;DHT22;2062;50.694;7.246;2023-04-01T07:05:47;9.90;60.60
4097;DHT22;2062;50.694;7.246;2023-04-01T07:08:17;9.90;60.30
4097;DHT22;2062;50.694;7.246;2023-04-01T07:10:50;9.90;60.30
4097;DHT22;2062;50.694;7.246;2023-04-01T07:13:21;9.90;60.30
4097;DHT22;2062;50.694;7.246;2023-04-01T07:15:56;9.90;60.00
4097;DHT22;2062;50.694;7.246;2023-04-01T07:18:30;9.90;60.10
4097;DHT22;2062;50.694;7.246;2023-04-01T07:20:58;10.00;60.00
4097;DHT22;2062;50.694;7.246;2023-04-01T07:23:29;10.00;60.00
4097;DHT22;2062;50.694;7.246;2023-04-01T07:26:00;10.00;61.00
4097;DHT22;2062;50.694;7.246;2023-04-01T07:28:31;10.00;60.10
4097;DHT22;2062;50.694;7.246;2023-04-01T07:31:07;10.00;60.30
4097;DHT22;2062;50.694;7.246;2023-04-01T07:33:41;10.00;60.40
4097;DHT22;2062;50.694;7.246;2023-04-01T07:36:12;10.10;60.60
4097;DHT22;2062;50.694;7.246;2023-04-01T07:38:52;10.10;60.70
4097;DHT22;2062;50.694;7.246;2023-04-01T07:41:29;10.10;60.90
4097;DHT22;2062;50.694;7.246;2023-04-01T07:44:07;10.20;60.90
4097;DHT22;2062;50.694;7.246;2023-04-01T07:46:56;10.20;60.70
4097;DHT22;2062;50.694;7.246;2023-04-01T07:49:31;10.20;61.30
4097;DHT22;2062;50.694;7.246;2023-04-01T07:52:08;10.30;61.10
4097;DHT22;2062;50.694;7.246;2023-04-01T07:54:44;10.30;61.10
4097;DHT22;2062;50.694;7.246;2023-04-01T07:57:19;10.30;61.10
4097;DHT22;2062;50.694;7.246;2023-04-01T07:59:54;10.40;61.20
4097;DHT22;2062;50.694;7.246;2023-04-01T08:02:32;10.40;61.20
4097;DHT22;2062;50.694;7.246;2023-04-01T08:05:07;10.40;61.10
4097;DHT22;2062;50.694;7.246;2023-04-01T08:07:40;10.40;61.30
4097;DHT22;2062;50.694;7.246;2023-04-01T08:10:18;10.50;61.30
4097;DHT22;2062;50.694;7.246;2023-04-01T08:12:55;10.50;61.30
4097;DHT22;2062;50.694;7.246;2023-04-01T08:15:28;10.50;61.60
4097;DHT22;2062;50.694;7.246;2023-04-01T08:18:06;10.50;61.40
4097;DHT22;2062;50.694;7.246;2023-04-01T08:20:41;10.60;61.60
4097;DHT22;2062;50.694;7.246;2023-04-01T08:23:14;10.60;61.50
4097;DHT22;2062;50.694;7.246;2023-04-01T08:25:48;10.60;61.50
4097;DHT22;2062;50.694;7.246;2023-04-01T08:28:20;10.60;61.60
4097;DHT22;2062;50.694;7.246;2023-04-01T08:30:51;10.70;61.70
4097;DHT22;2062;50.694;7.246;2023-04-01T08:33:23;10.60;61.50
4097;DHT22;2062;50.694;7.246;2023-04-01T08:35:56;10.70;61.80
4097;DHT22;2062;50.694;7.246;2023-04-01T08:38:30;10.60;61.70
4097;DHT22;2062;50.694;7.246;2023-04-01T08:41:01;10.70;61.80
4097;DHT22;2062;50.694;7.246;2023-04-01T08:43:51;10.70;61.60
4097;DHT22;2062;50.694;7.246;2023-04-01T08:46:52;10.70;61.80
4097;DHT22;2062;50.694;7.246;2023-04-01T08:49:35;10.70;62.00
4097;DHT22;2062;50.694;7.246;2023-04-01T08:52:18;10.80;61.90
4097;DHT22;2062;50.694;7.246;2023-04-01T08:55:02;10.80;61.80
4097;DHT22;2062;50.694;7.246;2023-04-01T08:57:39;10.80;61.80
4097;DHT22;2062;50.694;7.246;2023-04-01T09:00:15;10.80;61.70
4097;DHT22;2062;50.694;7.246;2023-04-01T09:03:08;10.80;61.80
4097;DHT22;2062;50.694;7.246;2023-04-01T09:06:00;10.80;61.90
4097;DHT22;2062;50.694;7.246;2023-04-01T09:08:37;10.80;61.90
4097;DHT22;2062;50.694;7.246;2023-04-01T09:11:14;10.80;61.90
4097;DHT22;2062;50.694;7.246;2023-04-01T09:17:09;10.90;62.80
4097;DHT22;2062;50.694;7.246;2023-04-01T09:19:56;10.90;62.40
4097;DHT22;2062;50.694;7.246;2023-04-01T09:22:40;10.90;62.50
4097;DHT22;2062;50.694;7.246;2023-04-01T09:25:22;10.90;62.70
4097;DHT22;2062;50.694;7.246;2023-04-01T09:27:56;10.90;62.70
4097;DHT22;2062;50.694;7.246;2023-04-01T09:31:03;10.90;62.50
4097;DHT22;2062;50.694;7.246;2023-04-01T09:34:01;10.90;62.70
4097;DHT22;2062;50.694;7.246;2023-04-01T09:36:50;10.90;62.70
4097;DHT22;2062;50.694;7.246;2023-04-01T09:39:36;10.90;62.80
4097;DHT22;2062;50.694;7.246;2023-04-01T09:42:16;11.00;62.70
4097;DHT22;2062;50.694;7.246;2023-04-01T09:44:56;11.00;62.70
4097;DHT22;2062;50.694;7.246;2023-04-01T09:47:42;11.00;62.80
4097;DHT22;2062;50.694;7.246;2023-04-01T09:50:32;11.00;63.00
4097;DHT22;2062;50.694;7.246;2023-04-01T09:53:19;11.00;63.10
4097;DHT22;2062;50.694;7.246;2023-04-01T09:56:16;11.00;63.10
4097;DHT22;2062;50.694;7.246;2023-04-01T09:59:08;11.00;63.20
4097;DHT22;2062;50.694;7.246;2023-04-01T10:01:50;11.00;63.20
4097;DHT22;2062;50.694;7.246;2023-04-01T10:04:54;11.00;63.20
4097;DHT22;2062;50.694;7.246;2023-04-01T10:07:54;11.00;63.20
4097;DHT22;2062;50.694;7.246;2023-04-01T10:11:03;11.10;63.40
4097;DHT22;2062;50.694;7.246;2023-04-01T10:20:12;11.10;63.30
4097;DHT22;2062;50.694;7.246;2023-04-01T10:32:22;11.10;63.20
4097;DHT22;2062;50.694;7.246;2023-04-01T10:35:20;11.10;64.10
4097;DHT22;2062;50.694;7.246;2023-04-01T10:38:16;11.10;64.20
4097;DHT22;2062;50.694;7.246;2023-04-01T10:41:05;11.20;63.20
4097;DHT22;2062;50.694;7.246;2023-04-01T10:47:19;11.20;63.10
4097;DHT22;2062;50.694;7.246;2023-04-01T10:50:19;11.20;63.10
4097;DHT22;2062;50.694;7.246;2023-04-01T10:56:38;11.20;63.20
4097;DHT22;2062;50.694;7.246;2023-04-01T11:02:56;11.30;63.40
4097;DHT22;2062;50.694;7.246;2023-04-01T11:05:52;11.30;63.60
4097;DHT22;2062;50.694;7.246;2023-04-01T11:18:04;11.40;63.60
4097;DHT22;2062;50.694;7.246;2023-04-01T11:26:56;11.50;63.60
4097;DHT22;2062;50.694;7.246;2023-04-01T11:29:42;11.50;63.70
4097;DHT22;2062;50.694;7.246;2023-04-01T11:32:20;11.50;63.80
4097;DHT22;2062;50.694;7.246;2023-04-01T11:34:58;11.50;63.60
4097;DHT22;2062;50.694;7.246;2023-04-01T11:37:37;11.60;63.80
4097;DHT22;2062;50.694;7.246;2023-04-01T11:40:14;11.60;63.80
4097;DHT22;2062;50.694;7.246;2023-04-01T11:42:55;11.60;63.70
4097;DHT22;2062;50.694;7.246;2023-04-01T11:45:33;11.60;63.60
4097;DHT22;2062;50.694;7.246;2023-04-01T11:48:24;11.60;63.60
4097;DHT22;2062;50.694;7.246;2023-04-01T11:51:07;11.70;63.60
4097;DHT22;2062;50.694;7.246;2023-04-01T11:53:44;11.70;63.60
4097;DHT22;2062;50.694;7.246;2023-04-01T11:56:22;11.60;63.50
4097;DHT22;2062;50.694;7.246;2023-04-01T11:59:25;11.70;63.40
4097;DHT22;2062;50.694;7.246;2023-04-01T12:02:03;11.70;63.50
4097;DHT22;2062;50.694;7.246;2023-04-01T12:07:37;11.70;63.40
4097;DHT22;2062;50.694;7.246;2023-04-01T12:10:21;11.70;63.60
4097;DHT22;2062;50.694;7.246;2023-04-01T12:12:59;11.70;63.60
4097;DHT22;2062;50.694;7.246;2023-04-01T12:15:50;11.70;63.70
4097;DHT22;2062;50.694;7.246;2023-04-01T12:18:23;11.70;63.70
4097;DHT22;2062;50.694;7.246;2023-04-01T12:20:59;11.70;63.70
4097;DHT22;2062;50.694;7.246;2023-04-01T12:23:44;11.70;63.70
4097;DHT22;2062;50.694;7.246;2023-04-01T12:26:29;11.70;63.70
4097;DHT22;2062;50.694;7.246;2023-04-01T12:32:14;11.70;63.80
4097;DHT22;2062;50.694;7.246;2023-04-01T12:35:04;11.70;63.80
4097;DHT22;2062;50.694;7.246;2023-04-01T12:37:45;11.70;63.90
4097;DHT22;2062;50.694;7.246;2023-04-01T12:40:51;11.80;63.80
4097;DHT22;2062;50.694;7.246;2023-04-01T12:43:49;11.80;63.90
4097;DHT22;2062;50.694;7.246;2023-04-01T12:46:25;11.70;63.90
4097;DHT22;2062;50.694;7.246;2023-04-01T12:55:02;11.80;63.80
4097;DHT22;2062;50.694;7.246;2023-04-01T12:57:51;11.80;64.00
4097;DHT22;2062;50.694;7.246;2023-04-01T13:00:52;11.80;64.10
4097;DHT22;2062;50.694;7.246;2023-04-01T13:03:35;11.80;64.10
4097;DHT22;2062;50.694;7.246;2023-04-01T13:06:40;11.80;64.10
4097;DHT22;2062;50.694;7.246;2023-04-01T13:09:19;11.80;64.10
4097;DHT22;2062;50.694;7.246;2023-04-01T13:12:12;11.80;64.00
4097;DHT22;2062;50.694;7.246;2023-04-01T13:15:04;11.90;64.10
4097;DHT22;2062;50.694;7.246;2023-04-01T13:17:38;11.80;64.10
4097;DHT22;2062;50.694;7.246;2023-04-01T13:20:14;11.90;64.20
4097;DHT22;2062;50.694;7.246;2023-04-01T13:22:56;11.80;64.10
4097;DHT22;2062;50.694;7.246;2023-04-01T13:25:33;11.80;64.20
4097;DHT22;2062;50.694;7.246;2023-04-01T13:28:09;11.80;64.20
4097;DHT22;2062;50.694;7.246;2023-04-01T13:30:43;11.80;64.30
4097;DHT22;2062;50.694;7.246;2023-04-01T13:33:17;11.90;64.40
4097;DHT22;2062;50.694;7.246;2023-04-01T13:35:57;11.80;64.40
4097;DHT22;2062;50.694;7.246;2023-04-01T13:38:53;11.80;64.50
4097;DHT22;2062;50.694;7.246;2023-04-01T13:41:33;11.80;64.60
4097;DHT22;2062;50.694;7.246;2023-04-01T13:44:11;11.80;64.60
4097;DHT22;2062;50.694;7.246;2023-04-01T13:46:54;11.90;64.90
4097;DHT22;2062;50.694;7.246;2023-04-01T13:52:38;11.80;64.90
4097;DHT22;2062;50.694;7.246;2023-04-01T13:55:41;11.80;64.80
4097;DHT22;2062;50.694;7.246;2023-04-01T13:58:45;11.80;64.90
4097;DHT22;2062;50.694;7.246;2023-04-01T14:01:21;11.90;65.10
4097;DHT22;2062;50.694;7.246;2023-04-01T14:04:15;11.90;65.00
4097;DHT22;2062;50.694;7.246;2023-04-01T14:06:54;11.90;65.10
4097;DHT22;2062;50.694;7.246;2023-04-01T14:09:52;11.90;65.00
4097;DHT22;2062;50.694;7.246;2023-04-01T14:12:30;11.90;65.10
4097;DHT22;2062;50.694;7.246;2023-04-01T14:15:14;12.00;65.10
4097;DHT22;2062;50.694;7.246;2023-04-01T14:17:57;11.90;65.20
4097;DHT22;2062;50.694;7.246;2023-04-01T14:20:34;11.90;65.20
4097;DHT22;2062;50.694;7.246;2023-04-01T14:23:45;12.00;65.00
4097;DHT22;2062;50.694;7.246;2023-04-01T14:26:26;12.00;65.00
4097;DHT22;2062;50.694;7.246;2023-04-01T14:29:08;12.00;65.00
4097;DHT22;2062;50.694;7.246;2023-04-01T14:31:44;12.00;65.10
4097;DHT22;2062;50.694;7.246;2023-04-01T14:34:24;12.00;65.00
4097;DHT22;2062;50.694;7.246;2023-04-01T14:37:03;12.00;64.90
4097;DHT22;2062;50.694;7.246;2023-04-01T14:40:18;12.00;64.80
4097;DHT22;2062;50.694;7.246;2023-04-01T14:43:03;12.10;65.00
4097;DHT22;2062;50.694;7.246;2023-04-01T14:46:01;12.10;64.70
4097;DHT22;2062;50.694;7.246;2023-04-01T14:48:38;12.10;64.40
4097;DHT22;2062;50.694;7.246;2023-04-01T14:51:15;12.10;64.20
4097;DHT22;2062;50.694;7.246;2023-04-01T14:53:50;12.10;64.00
4097;DHT22;2062;50.694;7.246;2023-04-01T14:56:37;12.10;63.90
4097;DHT22;2062;50.694;7.246;2023-04-01T14:59:27;12.10;63.90
4097;DHT22;2062;50.694;7.246;2023-04-01T15:02:00;12.10;63.70
4097;DHT22;2062;50.694;7.246;2023-04-01T15:04:42;12.10;63.40
4097;DHT22;2062;50.694;7.246;2023-04-01T15:10:26;12.10;63.50
4097;DHT22;2062;50.694;7.246;2023-04-01T15:13:07;12.10;63.50
4097;DHT22;2062;50.694;7.246;2023-04-01T15:15:57;12.10;63.40
4097;DHT22;2062;50.694;7.246;2023-04-01T15:18:37;12.10;63.50
4097;DHT22;2062;50.694;7.246;2023-04-01T15:21:22;12.10;63.50
4097;DHT22;2062;50.694;7.246;2023-04-01T15:23:57;12.10;63.50
4097;DHT22;2062;50.694;7.246;2023-04-01T15:29:50;12.10;63.20
4097;DHT22;2062;50.694;7.246;2023-04-01T15:32:24;12.10;63.10
4097;DHT22;2062;50.694;7.246;2023-04-01T15:35:03;12.10;62.90
4097;DHT22;2062;50.694;7.246;2023-04-01T15:37:44;12.00;62.60
4097;DHT22;2062;50.694;7.246;2023-04-01T15:40:19;12.00;62.80
4097;DHT22;2062;50.694;7.246;2023-04-01T15:42:57;12.00;62.90
4097;DHT22;2062;50.694;7.246;2023-04-01T15:45:35;12.00;62.90
4097;DHT22;2062;50.694;7.246;2023-04-01T15:48:16;12.00;63.00
4097;DHT22;2062;50.694;7.246;2023-04-01T15:51:13;12.00;63.00
4097;DHT22;2062;50.694;7.246;2023-04-01T15:53:56;11.90;63.10
4097;DHT22;2062;50.694;7.246;2023-04-01T15:56:43;12.00;63.10
4097;DHT22;2062;50.694;7.246;2023-04-01T15:59:22;11.90;63.10
4097;DHT22;2062;50.694;7.246;2023-04-01T16:01:59;11.90;63.30
4097;DHT22;2062;50.694;7.246;2023-04-01T16:04:48;12.00;63.30
4097;DHT22;2062;50.694;7.246;2023-04-01T16:07:30;11.90;63.50
4097;DHT22;2062;50.694;7.246;2023-04-01T16:10:27;11.90;63.60
4097;DHT22;2062;50.694;7.246;2023-04-01T16:13:11;11.80;63.70
4097;DHT22;2062;50.694;7.246;2023-04-01T16:15:46;11.80;63.80
4097;DHT22;2062;50.694;7.246;2023-04-01T16:18:29;11.80;63.80
4097;DHT22;2062;50.694;7.246;2023-04-01T16:21:04;11.80;63.90
4097;DHT22;2062;50.694;7.246;2023-04-01T16:23:37;11.80;63.90
4097;DHT22;2062;50.694;7.246;2023-04-01T16:26:08;11.80;63.90
4097;DHT22;2062;50.694;7.246;2023-04-01T16:28:44;11.80;64.10
4097;DHT22;2062;50.694;7.246;2023-04-01T16:31:27;11.80;64.10
4097;DHT22;2062;50.694;7.246;2023-04-01T16:34:02;11.70;64.20
4097;DHT22;2062;50.694;7.246;2023-04-01T16:36:36;11.70;65.20
4097;DHT22;2062;50.694;7.246;2023-04-01T16:39:26;11.70;64.30
4097;DHT22;2062;50.694;7.246;2023-04-01T16:42:20;11.70;64.40
4097;DHT22;2062;50.694;7.246;2023-04-01T16:44:52;11.70;64.50
4097;DHT22;2062;50.694;7.246;2023-04-01T16:47:22;11.70;64.50
4097;DHT22;2062;50.694;7.246;2023-04-01T16:49:58;11.70;64.50
4097;DHT22;2062;50.694;7.246;2023-04-01T16:52:44;11.60;64.40
4097;DHT22;2062;50.694;7.246;2023-04-01T16:55:18;11.60;64.60
4097;DHT22;2062;50.694;7.246;2023-04-01T16:57:50;11.60;64.50
4097;DHT22;2062;50.694;7.246;2023-04-01T17:00:24;11.50;64.50
4097;DHT22;2062;50.694;7.246;2023-04-01T17:02:59;11.60;64.60
4097;DHT22;2062;50.694;7.246;2023-04-01T17:05:49;11.50;64.60
4097;DHT22;2062;50.694;7.246;2023-04-01T17:08:33;11.50;64.70
4097;DHT22;2062;50.694;7.246;2023-04-01T17:11:09;11.50;64.60
4097;DHT22;2062;50.694;7.246;2023-04-01T17:13:47;11.50;64.70
4097;DHT22;2062;50.694;7.246;2023-04-01T17:16:44;11.40;64.40
4097;DHT22;2062;50.694;7.246;2023-04-01T17:19:22;11.40;64.50
4097;DHT22;2062;50.694;7.246;2023-04-01T17:21:58;11.40;64.40
4097;DHT22;2062;50.694;7.246;2023-04-01T17:24:42;11.50;64.50
4097;DHT22;2062;50.694;7.246;2023-04-01T17:27:27;11.30;64.40
4097;DHT22;2062;50.694;7.246;2023-04-01T17:30:03;11.30;64.40
4097;DHT22;2062;50.694;7.246;2023-04-01T17:32:40;11.30;64.50
4097;DHT22;2062;50.694;7.246;2023-04-01T17:35:13;11.30;64.60
4097;DHT22;2062;50.694;7.246;2023-04-01T17:37:52;11.30;64.60
4097;DHT22;2062;50.694;7.246;2023-04-01T17:40:44;11.20;64.50
4097;DHT22;2062;50.694;7.246;2023-04-01T17:43:24;11.20;64.60
4097;DHT22;2062;50.694;7.246;2023-04-01T17:45:54;11.20;64.60
4097;DHT22;2062;50.694;7.246;2023-04-01T17:48:34;11.20;64.50
4097;DHT22;2062;50.694;7.246;2023-04-01T17:51:16;11.10;64.70
4097;DHT22;2062;50.694;7.246;2023-04-01T17:53:50;11.10;64.70
4097;DHT22;2062;50.694;7.246;2023-04-01T17:56:25;11.10;64.70
4097;DHT22;2062;50.694;7.246;2023-04-01T17:59:05;11.10;64.60
4097;DHT22;2062;50.694;7.246;2023-04-01T18:01:45;11.10;64.70
4097;DHT22;2062;50.694;7.246;2023-04-01T18:04:39;11.00;64.60
4097;DHT22;2062;50.694;7.246;2023-04-01T18:07:44;11.00;64.70
4097;DHT22;2062;50.694;7.246;2023-04-01T18:10:24;11.00;64.70
4097;DHT22;2062;50.694;7.246;2023-04-01T18:16:02;10.90;64.70
4097;DHT22;2062;50.694;7.246;2023-04-01T18:18:46;10.80;64.80
4097;DHT22;2062;50.694;7.246;2023-04-01T18:21:20;10.90;64.80
4097;DHT22;2062;50.694;7.246;2023-04-01T18:23:53;10.80;64.70